Cincinnati, Ohio
Traffic Map
Current Weather Conditions
Cincinnati, Ohio
Broken Clouds
Broken Clouds
75°
Feels Like: 75°
Wind Chill: 75° Ceiling: 8500
Heat Index: 75° Visibility: 10mi
Dew Point: 73° Wind: 0mph
Humidity: 94% Direction: ° ()
Pressure: 30.05in Gusts: 0mph
Raw Report DataKLUK 292253Z 00000KT 10SM SCT050 BKN085 24/23 A3005 RMK AO2 LTG DSNT E RAE22 SLP173 P0001 T02390228
Traffic Incident Summary
Active as of:
Severity:
Category:
InformationThere was an issue retrieving the traffic information for this location. Please try a different location or try again shortly.
Advertisements
Track Severe Weather on mobile